Time;durP1;ratioP1;P1;durP2;ratioP2;P2;SDS_P1;SDS_P2;PMS_P1;PMS_P2;Temp;Humidity;BMP_temperature;BMP_pressure;BME280_temperature;BME280_humidity;BME280_pressure;Samples;Min_cycle;Max_cycle;Signal;HPM_P1;HPM_P2
2023/05/14 00:02:12;;;;;;;1999.90;999.90;;;10.30;93.80;;;;;;5036131;28;20037;-85
2023/05/14 00:04:38;;;;;;;1999.90;999.90;;;10.40;93.90;;;;;;5036567;28;20128;-82
2023/05/14 00:07:04;;;;;;;1999.90;999.90;;;10.40;93.70;;;;;;5033610;28;20128;-85
2023/05/14 00:09:31;;;;;;;1999.90;999.90;;;10.50;93.50;;;;;;5031595;28;20029;-86
2023/05/14 00:11:57;;;;;;;1999.90;999.90;;;10.40;93.60;;;;;;5035892;28;20026;-84
2023/05/14 00:14:23;;;;;;;1999.90;999.90;;;10.40;93.60;;;;;;5036172;28;20032;-84
2023/05/14 00:16:50;;;;;;;1999.90;999.90;;;10.40;93.50;;;;;;5034175;28;20029;-86
2023/05/14 00:19:15;;;;;;;1999.90;999.90;;;10.30;93.60;;;;;;5037514;28;20407;-81
2023/05/14 00:21:41;;;;;;;1999.90;999.90;;;10.40;93.70;;;;;;5035551;28;20037;-82
2023/05/14 00:24:07;;;;;;;1999.90;999.90;;;10.40;93.60;;;;;;5035467;28;20083;-86
2023/05/14 00:26:33;;;;;;;1999.90;999.90;;;10.40;93.60;;;;;;5015143;28;20056;-84
2023/05/14 00:28:58;;;;;;;1999.90;999.90;;;10.40;93.70;;;;;;5037167;28;20030;-85
2023/05/14 00:31:24;;;;;;;1999.90;999.90;;;10.40;93.60;;;;;;5035310;28;20029;-83
2023/05/14 00:33:50;;;;;;;1999.90;999.90;;;10.40;93.50;;;;;;5034898;28;21400;-85
2023/05/14 00:36:15;;;;;;;1999.90;999.90;;;10.30;93.70;;;;;;5018013;28;20041;-83
2023/05/14 00:38:41;;;;;;;1999.90;999.90;;;10.30;93.80;;;;;;5034050;28;20076;-83
2023/05/14 00:41:07;;;;;;;1999.90;999.90;;;10.40;93.70;;;;;;5035504;28;20604;-85
2023/05/14 00:43:32;;;;;;;1999.90;999.90;;;10.40;93.60;;;;;;5033658;28;20037;-85
2023/05/14 00:45:58;;;;;;;1999.90;999.90;;;10.40;93.70;;;;;;5032346;28;20033;-85
2023/05/14 00:48:24;;;;;;;1999.90;999.90;;;10.30;93.60;;;;;;5016307;28;20541;-82
2023/05/14 00:50:50;;;;;;;1999.90;999.90;;;10.40;93.60;;;;;;5033075;28;20037;-85
2023/05/14 00:53:17;;;;;;;1999.90;999.90;;;10.40;93.70;;;;;;5033699;28;20025;-83
2023/05/14 00:55:45;;;;;;;1999.90;999.90;;;10.30;93.80;;;;;;5035584;28;20060;-83
2023/05/14 00:58:14;;;;;;;1999.90;999.90;;;10.40;93.70;;;;;;5033295;28;20037;-81
2023/05/14 01:00:41;;;;;;;1999.90;999.90;;;10.30;93.70;;;;;;5034605;28;20037;-87
2023/05/14 01:03:07;;;;;;;1999.90;999.90;;;10.30;93.70;;;;;;5035343;28;20495;-82
2023/05/14 01:05:55;;;;;;;1999.90;999.90;;;10.30;93.80;;;;;;5030476;28;20038;-84
2023/05/14 01:08:35;;;;;;;1999.90;999.90;;;10.40;93.70;;;;;;5030203;28;20100;-85
2023/05/14 01:11:11;;;;;;;1999.90;999.90;;;10.40;93.60;;;;;;5028540;28;20088;-84
2023/05/14 01:14:01;;;;;;;1999.90;999.90;;;10.30;93.80;;;;;;5040207;28;20510;-81
2023/05/14 01:16:29;;;;;;;1999.90;999.90;;;10.30;93.90;;;;;;5033968;28;20040;-86
2023/05/14 01:18:56;;;;;;;1999.90;999.90;;;10.40;93.90;;;;;;5031708;28;20290;-87
2023/05/14 01:21:41;;;;;;;1999.90;999.90;;;10.40;93.70;;;;;;5031722;28;20135;-85
2023/05/14 01:24:07;;;;;;;1999.90;999.90;;;10.30;93.80;;;;;;5035416;28;20487;-85
2023/05/14 01:26:34;;;;;;;1999.90;999.90;;;10.20;94.00;;;;;;5032082;28;20037;-85
2023/05/14 01:29:10;;;;;;;1999.90;999.90;;;10.20;94.00;;;;;;5034446;28;20029;-85
2023/05/14 01:31:38;;;;;;;1999.90;999.90;;;10.30;93.90;;;;;;5030737;28;20080;-84
2023/05/14 01:34:05;;;;;;;1999.90;999.90;;;10.20;94.10;;;;;;5031740;28;20492;-82
2023/05/14 01:36:32;;;;;;;1999.90;999.90;;;10.40;93.90;;;;;;5030686;28;20041;-83
2023/05/14 01:39:00;;;;;;;1999.90;999.90;;;10.30;94.10;;;;;;5036437;28;20029;-81
2023/05/14 01:41:28;;;;;;;1999.90;999.90;;;10.20;94.00;;;;;;5033662;28;20045;-86
2023/05/14 01:43:54;;;;;;;1999.90;999.90;;;10.30;94.20;;;;;;5033698;28;20079;-84
2023/05/14 01:46:19;;;;;;;1999.90;999.90;;;10.30;94.10;;;;;;5029664;28;20030;-85
2023/05/14 01:48:45;;;;;;;1999.90;999.90;;;10.30;94.00;;;;;;5032042;28;20033;-85
2023/05/14 01:51:13;;;;;;;1999.90;999.90;;;10.30;94.10;;;;;;5032429;28;20037;-84
2023/05/14 01:53:39;;;;;;;1999.90;999.90;;;10.30;94.20;;;;;;5032859;28;20462;-85
2023/05/14 01:56:05;;;;;;;1999.90;999.90;;;10.30;94.00;;;;;;5034781;28;20133;-85
2023/05/14 01:58:30;;;;;;;1999.90;999.90;;;10.30;94.20;;;;;;5033688;28;20044;-83
2023/05/14 02:00:56;;;;;;;1999.90;999.90;;;10.30;94.10;;;;;;5017463;28;20043;-85
2023/05/14 02:03:22;;;;;;;1999.90;999.90;;;10.30;94.10;;;;;;5036018;28;20127;-81
2023/05/14 02:05:47;;;;;;;1999.90;999.90;;;10.40;94.20;;;;;;5033151;28;20091;-82
2023/05/14 02:08:14;;;;;;;1999.90;999.90;;;10.30;94.10;;;;;;5034717;28;20091;-83
2023/05/14 02:10:39;;;;;;;1999.90;999.90;;;10.30;94.20;;;;;;5031878;28;20033;-80
2023/05/14 02:13:05;;;;;;;1999.90;999.90;;;10.20;94.30;;;;;;5035983;28;20056;-83
2023/05/14 02:15:31;;;;;;;1999.90;999.90;;;10.30;94.50;;;;;;5032351;28;20065;-85
2023/05/14 02:17:56;;;;;;;1999.90;999.90;;;10.40;94.20;;;;;;5035903;28;20623;-81
2023/05/14 02:20:22;;;;;;;1999.90;999.90;;;10.30;94.20;;;;;;5035311;28;20033;-84
2023/05/14 02:22:47;;;;;;;1999.90;999.90;;;10.30;94.30;;;;;;5035759;28;20061;-83
2023/05/14 02:25:14;;;;;;;1999.90;999.90;;;10.30;94.30;;;;;;5034888;28;20853;-85
2023/05/14 02:27:39;;;;;;;1999.90;999.90;;;10.20;94.30;;;;;;5031687;28;20033;-81
2023/05/14 02:30:06;;;;;;;1999.90;999.90;;;10.30;94.30;;;;;;5035362;28;20029;-85
2023/05/14 02:32:31;;;;;;;1999.90;999.90;;;10.20;94.40;;;;;;5032922;28;20025;-83
2023/05/14 02:34:57;;;;;;;1999.90;999.90;;;10.20;94.50;;;;;;5031909;28;20028;-83
2023/05/14 02:37:23;;;;;;;1999.90;999.90;;;10.30;94.40;;;;;;5032809;28;20041;-84
2023/05/14 02:39:48;;;;;;;1999.90;999.90;;;10.40;94.30;;;;;;5035244;28;20041;-82
2023/05/14 02:42:14;;;;;;;1999.90;999.90;;;10.40;94.10;;;;;;5033813;28;20037;-85
2023/05/14 02:44:41;;;;;;;1999.90;999.90;;;10.30;94.20;;;;;;5032144;28;20064;-83
2023/05/14 02:47:06;;;;;;;1999.90;999.90;;;10.40;94.30;;;;;;5030413;28;20029;-83
2023/05/14 02:49:32;;;;;;;1999.90;999.90;;;10.40;94.20;;;;;;5024500;28;20052;-84
2023/05/14 02:51:59;;;;;;;1999.90;999.90;;;10.40;94.00;;;;;;5032237;28;20506;-85
2023/05/14 02:54:25;;;;;;;1999.90;999.90;;;10.30;94.10;;;;;;5033285;28;20026;-83
2023/05/14 02:56:51;;;;;;;1999.90;999.90;;;10.30;94.60;;;;;;5031936;28;20030;-87
2023/05/14 02:59:16;;;;;;;1999.90;999.90;;;10.30;94.30;;;;;;5032632;28;20060;-85
2023/05/14 03:01:42;;;;;;;1999.90;999.90;;;10.20;94.30;;;;;;5036159;28;20133;-85
2023/05/14 03:04:08;;;;;;;1999.90;999.90;;;10.20;94.30;;;;;;5037446;28;20029;-83
2023/05/14 03:06:33;;;;;;;1999.90;999.90;;;10.30;94.50;;;;;;5017196;28;20029;-85
2023/05/14 03:08:59;;;;;;;1999.90;999.90;;;10.30;94.40;;;;;;5035342;28;20034;-85
2023/05/14 03:11:26;;;;;;;1999.90;999.90;;;10.30;94.40;;;;;;5032779;28;20026;-86
2023/05/14 03:13:52;;;;;;;1999.90;999.90;;;10.20;94.40;;;;;;5035683;28;20121;-83
2023/05/14 03:16:17;;;;;;;1999.90;999.90;;;10.30;94.40;;;;;;5036119;28;20112;-83
2023/05/14 03:18:45;;;;;;;1999.90;999.90;;;10.20;94.50;;;;;;5019487;28;20042;-83
2023/05/14 03:21:11;;;;;;;1999.90;999.90;;;10.20;94.60;;;;;;5036982;28;20029;-88
2023/05/14 03:23:36;;;;;;;1999.90;999.90;;;10.20;94.60;;;;;;5036630;28;20091;-85
2023/05/14 03:26:03;;;;;;;1999.90;999.90;;;10.20;94.50;;;;;;5032091;28;20056;-85
2023/05/14 03:28:29;;;;;;;1999.90;999.90;;;10.30;94.80;;;;;;5036812;28;20040;-84
2023/05/14 03:30:55;;;;;;;1999.90;999.90;;;10.30;94.50;;;;;;5034104;28;20033;-83
2023/05/14 03:33:21;;;;;;;1999.90;999.90;;;10.30;94.50;;;;;;5039220;28;20459;-85
2023/05/14 03:35:47;;;;;;;1999.90;999.90;;;10.20;94.50;;;;;;5029956;28;20029;-87
2023/05/14 03:38:13;;;;;;;1999.90;999.90;;;10.30;94.50;;;;;;5030420;28;20492;-84
2023/05/14 03:40:38;;;;;;;1999.90;999.90;;;10.20;94.50;;;;;;5025282;28;20458;-84
2023/05/14 03:43:04;;;;;;;1999.90;999.90;;;10.20;94.60;;;;;;5024092;28;20777;-84
2023/05/14 03:45:32;;;;;;;1999.90;999.90;;;10.20;94.50;;;;;;5036646;28;20116;-82
2023/05/14 03:47:58;;;;;;;1999.90;999.90;;;10.20;94.70;;;;;;5028439;28;20053;-84
2023/05/14 03:50:24;;;;;;;1999.90;999.90;;;10.20;94.60;;;;;;5025759;28;20049;-84
2023/05/14 03:52:51;;;;;;;1999.90;999.90;;;10.30;94.50;;;;;;5014625;28;20033;-83
2023/05/14 03:55:18;;;;;;;1999.90;999.90;;;10.40;94.50;;;;;;5031047;28;20483;-82
2023/05/14 03:57:44;;;;;;;1999.90;999.90;;;10.20;94.60;;;;;;5016884;28;20052;-85
2023/05/14 04:00:10;;;;;;;1999.90;999.90;;;10.30;94.80;;;;;;5027600;28;20495;-83
2023/05/14 04:02:36;;;;;;;1999.90;999.90;;;10.10;94.80;;;;;;5032725;28;20124;-87
2023/05/14 04:05:03;;;;;;;1999.90;999.90;;;10.20;94.80;;;;;;5033856;28;20456;-82
2023/05/14 04:07:29;;;;;;;1999.90;999.90;;;10.20;94.80;;;;;;5035313;28;20490;-85
2023/05/14 04:09:54;;;;;;;1999.90;999.90;;;10.20;94.80;;;;;;5027213;28;20072;-85
2023/05/14 04:12:20;;;;;;;1999.90;999.90;;;10.20;94.70;;;;;;5037591;28;20022;-87
2023/05/14 04:14:46;;;;;;;1999.90;999.90;;;10.30;94.80;;;;;;5033552;28;20172;-86
2023/05/14 04:17:11;;;;;;;1999.90;999.90;;;10.20;94.80;;;;;;5036667;28;20037;-86
2023/05/14 04:19:38;;;;;;;1999.90;999.90;;;10.30;94.60;;;;;;5036978;28;20036;-86
2023/05/14 04:22:05;;;;;;;1999.90;999.90;;;10.30;94.60;;;;;;5038554;28;20086;-84
2023/05/14 04:24:31;;;;;;;1999.90;999.90;;;10.40;94.60;;;;;;5029700;28;20037;-83
2023/05/14 04:26:56;;;;;;;1999.90;999.90;;;10.30;94.50;;;;;;5035970;28;20048;-83
2023/05/14 04:29:22;;;;;;;1999.90;999.90;;;10.40;94.60;;;;;;5032064;28;20045;-84
2023/05/14 04:31:52;;;;;;;1999.90;999.90;;;10.40;94.60;;;;;;5038486;28;20021;-84
2023/05/14 04:34:17;;;;;;;1999.90;999.90;;;10.40;94.50;;;;;;5032871;28;20021;-86
2023/05/14 04:36:43;;;;;;;1999.90;999.90;;;10.40;94.50;;;;;;5037666;28;20106;-84
2023/05/14 04:39:11;;;;;;;1999.90;999.90;;;10.30;94.60;;;;;;5034019;28;20044;-86
2023/05/14 04:41:37;;;;;;;1999.90;999.90;;;10.40;94.70;;;;;;5034761;28;20037;-83
2023/05/14 04:44:02;;;;;;;1999.90;999.90;;;10.50;94.30;;;;;;5031304;28;20505;-88
2023/05/14 04:46:28;;;;;;;1999.90;999.90;;;10.30;94.50;;;;;;5034523;28;20063;-84
2023/05/14 04:48:55;;;;;;;1999.90;999.90;;;10.40;94.50;;;;;;5029960;28;20091;-84
2023/05/14 04:51:21;;;;;;;1999.90;999.90;;;10.30;94.30;;;;;;5037378;28;20029;-84
2023/05/14 04:53:46;;;;;;;1999.90;999.90;;;10.40;94.50;;;;;;5030785;28;20522;-87
2023/05/14 04:56:12;;;;;;;1999.90;999.90;;;10.40;94.50;;;;;;5032332;28;20630;-88
2023/05/14 04:58:37;;;;;;;1999.90;999.90;;;10.40;94.30;;;;;;5036184;28;20040;-85
2023/05/14 05:01:05;;;;;;;1999.90;999.90;;;10.50;94.50;;;;;;5032726;28;20029;-86
2023/05/14 05:03:31;;;;;;;1999.90;999.90;;;10.50;94.20;;;;;;5033244;28;20029;-84
2023/05/14 05:05:57;;;;;;;1999.90;999.90;;;10.50;94.10;;;;;;5039780;28;20108;-85
2023/05/14 05:08:22;;;;;;;1999.90;999.90;;;10.50;94.10;;;;;;5033899;28;20053;-85
2023/05/14 05:10:48;;;;;;;1999.90;999.90;;;10.40;94.30;;;;;;5035572;28;20502;-86
2023/05/14 05:13:15;;;;;;;1999.90;999.90;;;10.40;94.20;;;;;;5036462;28;20034;-83
2023/05/14 05:15:42;;;;;;;1999.90;999.90;;;10.50;94.10;;;;;;5034613;28;20033;-85
2023/05/14 05:18:07;;;;;;;1999.90;999.90;;;10.60;94.10;;;;;;5033235;28;20061;-83
2023/05/14 05:20:33;;;;;;;1999.90;999.90;;;10.50;94.40;;;;;;5038456;28;20438;-83
2023/05/14 05:22:59;;;;;;;1999.90;999.90;;;10.70;93.80;;;;;;5037966;28;20075;-84
2023/05/14 05:25:26;;;;;;;1999.90;999.90;;;10.70;93.70;;;;;;5036538;28;20646;-85
2023/05/14 05:27:51;;;;;;;1999.90;999.90;;;10.60;93.70;;;;;;5036512;28;20384;-83
2023/05/14 05:30:18;;;;;;;1999.90;999.90;;;10.70;93.80;;;;;;5035575;28;20032;-85
2023/05/14 05:32:43;;;;;;;1999.90;999.90;;;10.80;93.30;;;;;;5035586;28;20072;-83
2023/05/14 05:35:09;;;;;;;1999.90;999.90;;;10.70;93.50;;;;;;5033184;28;20025;-85
2023/05/14 05:37:35;;;;;;;1999.90;999.90;;;10.70;93.60;;;;;;5031511;28;20033;-85
2023/05/14 05:40:00;;;;;;;1999.90;999.90;;;10.70;93.50;;;;;;5020645;28;20057;-86
2023/05/14 05:42:27;;;;;;;1999.90;999.90;;;10.60;93.70;;;;;;5031958;28;20077;-82
2023/05/14 05:44:53;;;;;;;1999.90;999.90;;;10.60;93.70;;;;;;5035855;28;20070;-82
2023/05/14 05:47:19;;;;;;;1999.90;999.90;;;10.50;93.50;;;;;;5032509;28;20037;-83
2023/05/14 05:49:44;;;;;;;1999.90;999.90;;;10.50;93.70;;;;;;5033023;28;20395;-81
2023/05/14 05:52:10;;;;;;;1999.90;999.90;;;10.50;93.60;;;;;;5034216;28;20355;-83
2023/05/14 05:54:38;;;;;;;1999.90;999.90;;;10.50;93.60;;;;;;5035097;28;20033;-81
2023/05/14 05:57:04;;;;;;;1999.90;999.90;;;10.60;93.40;;;;;;5027709;28;20033;-85
2023/05/14 05:59:30;;;;;;;1999.90;999.90;;;10.70;93.20;;;;;;5029606;28;20034;-81
2023/05/14 06:01:56;;;;;;;1999.90;999.90;;;10.80;93.30;;;;;;5024611;28;20565;-81
2023/05/14 06:04:21;;;;;;;1999.90;999.90;;;10.70;93.20;;;;;;5034106;28;20122;-83
2023/05/14 06:06:48;;;;;;;1999.90;999.90;;;10.60;93.80;;;;;;5028953;28;20038;-83
2023/05/14 06:09:14;;;;;;;1999.90;999.90;;;10.70;93.40;;;;;;5028603;28;20110;-84
2023/05/14 06:11:40;;;;;;;1999.90;999.90;;;10.70;93.40;;;;;;5034247;28;20132;-84
2023/05/14 06:14:07;;;;;;;1999.90;999.90;;;10.60;93.10;;;;;;5024552;28;20040;-84
2023/05/14 06:16:33;;;;;;;1999.90;999.90;;;10.60;93.50;;;;;;5030205;28;20557;-84
2023/05/14 06:19:00;;;;;;;1999.90;999.90;;;10.50;93.50;;;;;;5013446;28;20120;-83
2023/05/14 06:21:26;;;;;;;1999.90;999.90;;;10.50;93.80;;;;;;5026241;28;20561;-81
2023/05/14 06:23:53;;;;;;;1999.90;999.90;;;10.60;93.70;;;;;;5028834;28;20029;-85
2023/05/14 06:26:20;;;;;;;1999.90;999.90;;;10.50;93.60;;;;;;4996245;28;20519;-84
2023/05/14 06:28:46;;;;;;;1999.90;999.90;;;10.60;93.30;;;;;;5009681;28;20091;-81
2023/05/14 06:31:12;;;;;;;1999.90;999.90;;;10.60;93.40;;;;;;5013454;28;20034;-84
2023/05/14 06:33:38;;;;;;;1999.90;999.90;;;10.70;92.90;;;;;;5011516;28;20381;-84
2023/05/14 06:36:05;;;;;;;1999.90;999.90;;;10.70;92.80;;;;;;5013173;28;20025;-83
2023/05/14 06:38:32;;;;;;;1999.90;999.90;;;10.70;93.00;;;;;;5015846;28;20033;-84
2023/05/14 06:40:58;;;;;;;1999.90;999.90;;;10.70;93.00;;;;;;5010013;28;20124;-85
2023/05/14 06:43:23;;;;;;;1999.90;999.90;;;10.80;92.80;;;;;;4991317;28;20165;-84
2023/05/14 06:45:50;;;;;;;1999.90;999.90;;;10.80;93.10;;;;;;5006698;28;20067;-82
2023/05/14 06:48:19;;;;;;;1999.90;999.90;;;10.90;92.20;;;;;;4992331;28;20069;-84
2023/05/14 06:50:49;;;;;;;1999.90;999.90;;;10.90;92.40;;;;;;5005428;28;20451;-87
2023/05/14 06:53:15;;;;;;;1999.90;999.90;;;11.10;92.10;;;;;;5011432;28;20057;-79
2023/05/14 06:55:40;;;;;;;1999.90;999.90;;;11.30;92.00;;;;;;5012216;28;20033;-83
2023/05/14 06:58:15;;;;;;;1999.90;999.90;;;11.50;91.60;;;;;;5013949;28;20233;-90
2023/05/14 07:00:42;;;;;;;1999.90;999.90;;;11.60;90.70;;;;;;5009403;28;20548;-83
2023/05/14 07:03:07;;;;;;;1999.90;999.90;;;11.70;90.60;;;;;;5015687;28;20052;-87
2023/05/14 07:05:33;;;;;;;1999.90;999.90;;;11.80;90.50;;;;;;5019460;28;20033;-82
2023/05/14 07:07:59;;;;;;;1999.90;999.90;;;11.70;90.00;;;;;;5010707;28;20551;-82
2023/05/14 07:10:26;;;;;;;1999.90;999.90;;;11.60;90.40;;;;;;5014197;28;20022;-85
2023/05/14 07:12:51;;;;;;;1999.90;999.90;;;11.40;90.30;;;;;;5013515;28;20026;-81
2023/05/14 07:15:17;;;;;;;1999.90;999.90;;;11.60;90.40;;;;;;5012824;28;20030;-81
2023/05/14 07:17:45;;;;;;;1999.90;999.90;;;11.50;90.20;;;;;;5011514;28;20033;-82
2023/05/14 07:20:11;;;;;;;1999.90;999.90;;;11.40;90.80;;;;;;5014709;28;20029;-89
2023/05/14 07:22:37;;;;;;;1999.90;999.90;;;11.70;90.20;;;;;;5016941;28;20536;-83
2023/05/14 07:25:03;;;;;;;1999.90;999.90;;;11.60;90.20;;;;;;5017125;28;20049;-83
2023/05/14 07:27:29;;;;;;;1999.90;999.90;;;11.60;90.20;;;;;;5032981;28;20403;-85
2023/05/14 07:29:57;;;;;;;1999.90;999.90;;;11.50;90.40;;;;;;5037697;28;20060;-87
2023/05/14 07:32:23;;;;;;;1999.90;999.90;;;11.70;90.20;;;;;;5019074;28;20468;-87
2023/05/14 07:34:50;;;;;;;1999.90;999.90;;;11.70;89.40;;;;;;5034279;28;20034;-86
2023/05/14 07:37:16;;;;;;;1999.90;999.90;;;11.70;90.00;;;;;;5033705;28;20397;-85
2023/05/14 07:39:42;;;;;;;1999.90;999.90;;;11.60;90.10;;;;;;5016414;28;20475;-81
2023/05/14 07:42:07;;;;;;;1999.90;999.90;;;11.60;90.00;;;;;;5032752;28;20108;-86
2023/05/14 07:44:33;;;;;;;1999.90;999.90;;;11.50;90.00;;;;;;5024460;28;20414;-83
2023/05/14 07:46:59;;;;;;;1999.90;999.90;;;11.60;89.70;;;;;;5038765;28;20485;-87
2023/05/14 07:49:25;;;;;;;1999.90;999.90;;;11.60;89.00;;;;;;5045222;28;20033;-83
2023/05/14 07:51:52;;;;;;;1999.90;999.90;;;11.50;88.50;;;;;;5041161;28;20047;-88
2023/05/14 07:54:17;;;;;;;1999.90;999.90;;;11.40;88.60;;;;;;5038107;28;20112;-84
2023/05/14 07:56:43;;;;;;;1999.90;999.90;;;11.50;88.70;;;;;;5033446;28;20029;-87
2023/05/14 07:59:10;;;;;;;1999.90;999.90;;;11.50;88.60;;;;;;5036024;28;20029;-81
2023/05/14 08:01:37;;;;;;;1999.90;999.90;;;11.40;89.00;;;;;;5030687;28;20108;-80
2023/05/14 08:04:03;;;;;;;1999.90;999.90;;;11.60;88.20;;;;;;5016828;28;20032;-81
2023/05/14 08:06:28;;;;;;;1999.90;999.90;;;11.50;88.50;;;;;;5031069;28;20037;-84
2023/05/14 08:08:54;;;;;;;1999.90;999.90;;;11.50;89.00;;;;;;5036066;28;20083;-80
2023/05/14 08:11:21;;;;;;;1999.90;999.90;;;11.40;89.00;;;;;;5034296;28;20030;-79
2023/05/14 08:13:46;;;;;;;1999.90;999.90;;;11.50;88.90;;;;;;5031717;28;20384;-82
2023/05/14 08:16:13;;;;;;;1999.90;999.90;;;11.30;89.40;;;;;;5034314;28;20063;-79
2023/05/14 08:18:40;;;;;;;1999.90;999.90;;;11.30;89.10;;;;;;5031953;28;20038;-85
2023/05/14 08:21:06;;;;;;;1999.90;999.90;;;11.30;89.60;;;;;;5032271;28;20121;-84
2023/05/14 08:23:32;;;;;;;1999.90;999.90;;;11.50;88.50;;;;;;5041880;28;20117;-88
2023/05/14 08:25:59;;;;;;;1999.90;999.90;;;11.70;88.50;;;;;;5050881;28;20056;-84
2023/05/14 08:28:24;;;;;;;1999.90;999.90;;;11.90;87.60;;;;;;5033132;28;20191;-81
2023/05/14 08:30:50;;;;;;;1999.90;999.90;;;11.90;87.20;;;;;;5035987;28;20029;-86
2023/05/14 08:33:17;;;;;;;1999.90;999.90;;;11.80;87.60;;;;;;5038426;28;20064;-86
2023/05/14 08:35:44;;;;;;;1999.90;999.90;;;11.90;87.30;;;;;;5031138;28;20033;-84
2023/05/14 08:38:09;;;;;;;1999.90;999.90;;;12.20;85.70;;;;;;5027398;28;20037;-83
2023/05/14 08:40:35;;;;;;;1999.90;999.90;;;12.20;86.90;;;;;;5037753;28;20108;-86
2023/05/14 08:43:01;;;;;;;1999.90;999.90;;;12.30;85.80;;;;;;5040471;28;20315;-84
2023/05/14 08:45:32;;;;;;;1999.90;999.90;;;12.70;84.60;;;;;;5031081;28;20490;-85
2023/05/14 08:48:07;;;;;;;1999.90;999.90;;;12.90;82.80;;;;;;5038022;28;20049;-84
2023/05/14 08:50:34;;;;;;;1999.90;999.90;;;13.30;80.80;;;;;;5040183;28;20411;-84
2023/05/14 08:53:01;;;;;;;1999.90;999.90;;;13.70;80.50;;;;;;5037044;28;20038;-87
2023/05/14 08:55:27;;;;;;;1999.90;999.90;;;14.10;77.90;;;;;;5028577;28;20033;-81
2023/05/14 08:57:53;;;;;;;1999.90;999.90;;;14.30;77.80;;;;;;5034827;28;20037;-80
2023/05/14 09:00:20;;;;;;;1999.90;999.90;;;14.00;76.70;;;;;;5035553;28;20535;-84
2023/05/14 09:02:46;;;;;;;1999.90;999.90;;;14.20;76.30;;;;;;5033364;28;20228;-82
2023/05/14 09:05:13;;;;;;;1999.90;999.90;;;13.90;76.50;;;;;;5032663;28;20395;-83
2023/05/14 09:07:40;;;;;;;1999.90;999.90;;;13.80;77.00;;;;;;5030942;28;20037;-81
2023/05/14 09:10:07;;;;;;;1999.90;999.90;;;13.60;78.50;;;;;;5040552;28;20029;-81
2023/05/14 09:12:33;;;;;;;1999.90;999.90;;;13.70;76.70;;;;;;5039633;28;20017;-83
2023/05/14 09:14:59;;;;;;;1999.90;999.90;;;13.30;77.80;;;;;;5036699;28;20032;-85
2023/05/14 09:17:26;;;;;;;1999.90;999.90;;;13.20;78.10;;;;;;5036537;28;20483;-85
2023/05/14 09:19:52;;;;;;;1999.90;999.90;;;13.10;78.30;;;;;;5027799;28;20033;-83
2023/05/14 09:22:19;;;;;;;1999.90;999.90;;;12.80;79.10;;;;;;5023745;28;20025;-84
2023/05/14 09:24:46;;;;;;;1999.90;999.90;;;12.70;79.90;;;;;;5024894;28;20051;-86
2023/05/14 09:27:20;;;;;;;1999.90;999.90;;;12.50;80.90;;;;;;5029648;28;20119;-84
2023/05/14 09:29:48;;;;;;;1999.90;999.90;;;12.40;82.00;;;;;;5028615;28;20068;-84
2023/05/14 09:32:14;;;;;;;1999.90;999.90;;;12.20;80.70;;;;;;5027276;28;20033;-83
2023/05/14 09:34:41;;;;;;;1999.90;999.90;;;12.10;82.00;;;;;;5035320;28;20044;-83
2023/05/14 09:37:08;;;;;;;1999.90;999.90;;;12.20;81.10;;;;;;5025190;28;20598;-85
2023/05/14 09:39:35;;;;;;;1999.90;999.90;;;12.20;81.70;;;;;;5027614;28;20033;-83
2023/05/14 09:42:01;;;;;;;1999.90;999.90;;;12.30;81.10;;;;;;5014491;28;20039;-80
2023/05/14 09:44:28;;;;;;;1999.90;999.90;;;12.00;83.20;;;;;;5030464;28;20041;-84
2023/05/14 09:46:54;;;;;;;1999.90;999.90;;;12.00;83.40;;;;;;5045315;28;20398;-81
2023/05/14 09:49:20;;;;;;;1999.90;999.90;;;11.90;82.00;;;;;;5031061;28;20032;-81
2023/05/14 09:51:48;;;;;;;1999.90;999.90;;;11.80;82.70;;;;;;5031063;28;20033;-84
2023/05/14 09:54:14;;;;;;;1999.90;999.90;;;11.80;82.10;;;;;;5027051;28;20033;-83
2023/05/14 09:56:41;;;;;;;1999.90;999.90;;;11.90;81.80;;;;;;5032705;28;22902;-82
2023/05/14 09:59:07;;;;;;;1999.90;999.90;;;12.10;81.40;;;;;;5031694;28;20118;-83
2023/05/14 10:01:33;;;;;;;1999.90;999.90;;;12.20;80.90;;;;;;5029945;28;20633;-81
2023/05/14 10:04:02;;;;;;;1999.90;999.90;;;12.10;81.40;;;;;;5032104;28;20116;-85
2023/05/14 10:06:32;;;;;;;1999.90;999.90;;;12.00;81.50;;;;;;5026231;28;20045;-82
2023/05/14 10:09:02;;;;;;;1999.90;999.90;;;12.00;82.20;;;;;;5031409;28;20033;-80
2023/05/14 10:11:33;;;;;;;1999.90;999.90;;;12.00;82.20;;;;;;5014324;28;20033;-87
2023/05/14 10:14:16;;;;;;;1999.90;999.90;;;11.90;82.10;;;;;;5023002;28;20033;-83
2023/05/14 10:17:02;;;;;;;1999.90;999.90;;;11.80;82.40;;;;;;5028210;28;20065;-84
2023/05/14 10:19:33;;;;;;;1999.90;999.90;;;12.00;82.60;;;;;;5032023;28;20057;-85
2023/05/14 10:22:09;;;;;;;1999.90;999.90;;;12.30;81.60;;;;;;5026795;28;20033;-83
2023/05/14 10:24:37;;;;;;;1999.90;999.90;;;12.50;81.60;;;;;;5032674;28;20056;-80
2023/05/14 10:27:05;;;;;;;1999.90;999.90;;;12.30;82.00;;;;;;5033008;28;20060;-85
2023/05/14 10:29:36;;;;;;;1999.90;999.90;;;12.50;80.90;;;;;;5033747;28;20025;-81
2023/05/14 10:32:05;;;;;;;1999.90;999.90;;;13.10;80.10;;;;;;5035434;28;20037;-82
2023/05/14 10:34:44;;;;;;;1999.90;999.90;;;13.90;76.50;;;;;;5033261;28;20108;-82
2023/05/14 10:37:15;;;;;;;1999.90;999.90;;;14.40;75.10;;;;;;5034615;28;20044;-82
2023/05/14 10:39:42;;;;;;;1999.90;999.90;;;14.20;75.20;;;;;;5031868;28;20033;-82
2023/05/14 10:42:11;;;;;;;1999.90;999.90;;;14.00;75.20;;;;;;5037526;28;20028;-81
2023/05/14 10:44:47;;;;;;;1999.90;999.90;;;14.10;74.50;;;;;;5031067;28;20033;-83
2023/05/14 10:47:15;;;;;;;1999.90;999.90;;;14.10;74.70;;;;;;5032094;28;20399;-85
2023/05/14 10:49:41;;;;;;;1999.90;999.90;;;13.70;76.00;;;;;;5014548;28;20033;-82
2023/05/14 10:52:08;;;;;;;1999.90;999.90;;;13.20;77.60;;;;;;5031598;28;20406;-82
2023/05/14 10:54:37;;;;;;;1999.90;999.90;;;13.20;78.00;;;;;;5030868;28;20021;-82
2023/05/14 10:57:08;;;;;;;1999.90;999.90;;;13.30;78.00;;;;;;5029798;28;20045;-81
2023/05/14 10:59:34;;;;;;;1999.90;999.90;;;13.50;78.30;;;;;;5034657;28;20361;-80
2023/05/14 11:02:03;;;;;;;1999.90;999.90;;;13.60;77.10;;;;;;5031361;28;20052;-81
2023/05/14 11:04:32;;;;;;;1999.90;999.90;;;14.30;74.30;;;;;;5034538;28;20384;-83
2023/05/14 11:07:00;;;;;;;1999.90;999.90;;;15.00;73.60;;;;;;5030714;28;20045;-79
2023/05/14 11:09:25;;;;;;;1999.90;999.90;;;16.00;70.00;;;;;;5029231;28;20034;-78
2023/05/14 11:11:51;;;;;;;1999.90;999.90;;;17.20;66.70;;;;;;5033396;28;20052;-80
2023/05/14 11:14:18;;;;;;;1999.90;999.90;;;18.10;64.40;;;;;;5028694;28;20037;-80
2023/05/14 11:16:45;;;;;;;1999.90;999.90;;;18.10;63.60;;;;;;5028519;28;20034;-79
2023/05/14 11:19:11;;;;;;;1999.90;999.90;;;18.00;61.40;;;;;;5026202;28;20427;-80
2023/05/14 11:21:37;;;;;;;1999.90;999.90;;;18.00;60.80;;;;;;5035028;28;20091;-79
2023/05/14 11:24:06;;;;;;;1999.90;999.90;;;16.90;62.60;;;;;;5032802;28;20052;-78
2023/05/14 11:26:32;;;;;;;1999.90;999.90;;;16.40;65.70;;;;;;5032957;28;20076;-82
2023/05/14 11:28:58;;;;;;;1999.90;999.90;;;16.60;66.20;;;;;;5031817;28;20033;-79
2023/05/14 11:31:24;;;;;;;1999.90;999.90;;;16.60;65.50;;;;;;5031492;28;20033;-79
2023/05/14 11:33:51;;;;;;;1999.90;999.90;;;16.80;65.30;;;;;;5019171;28;20055;-79
2023/05/14 11:36:17;;;;;;;1999.90;999.90;;;17.00;63.30;;;;;;5038420;28;20120;-81
2023/05/14 11:38:47;;;;;;;1999.90;999.90;;;16.30;65.10;;;;;;5032067;28;20120;-80
2023/05/14 11:41:14;;;;;;;1999.90;999.90;;;16.40;65.30;;;;;;5034613;28;20029;-80
2023/05/14 11:43:40;;;;;;;1999.90;999.90;;;16.10;64.10;;;;;;5036010;28;20140;-78
2023/05/14 11:46:05;;;;;;;1999.90;999.90;;;15.80;65.70;;;;;;5036976;28;20037;-80
2023/05/14 11:48:32;;;;;;;1999.90;999.90;;;15.80;65.80;;;;;;5034190;28;20032;-79
2023/05/14 11:50:57;;;;;;;1999.90;999.90;;;16.50;66.80;;;;;;5037907;28;20327;-82
2023/05/14 11:53:28;;;;;;;1999.90;999.90;;;16.80;65.30;;;;;;5036413;28;20037;-80
2023/05/14 11:55:54;;;;;;;1999.90;999.90;;;16.20;65.90;;;;;;5032284;28;20034;-82
2023/05/14 11:58:20;;;;;;;1999.90;999.90;;;16.40;65.90;;;;;;5035698;28;20037;-82